Time;durP1;ratioP1;P1;durP2;ratioP2;P2;SDS_P1;SDS_P2;PMS_P1;PMS_P2;Temp;Humidity;BMP_temperature;BMP_pressure;BME280_temperature;BME280_humidity;BME280_pressure;Samples;Min_cycle;Max_cycle;Signal;HPM_P1;HPM_P2
2021/01/25 00:00:32;;;;;;;13.35;7.20;;;;;;;5.34;59.76;99780.28;4945773;28;114317;-69
2021/01/25 00:02:58;;;;;;;13.10;8.25;;;;;;;5.33;59.52;99773.31;4944722;28;114312;-70
2021/01/25 00:05:25;;;;;;;11.98;7.30;;;;;;;5.34;59.59;99775.03;4948120;28;124304;-70
2021/01/25 00:07:52;;;;;;;9.95;6.65;;;;;;;5.33;59.68;99778.56;4930458;28;123761;-69
2021/01/25 00:10:18;;;;;;;13.65;7.03;;;;;;;5.33;59.68;99775.94;4946903;28;114582;-69
2021/01/25 00:12:45;;;;;;;13.50;6.90;;;;;;;5.33;59.75;99778.56;4943251;28;114667;-70
2021/01/25 00:15:12;;;;;;;11.68;6.63;;;;;;;5.31;59.70;99783.00;4926910;28;123397;-69
2021/01/25 00:17:38;;;;;;;11.82;7.32;;;;;;;5.30;59.64;99778.69;4933595;28;124196;-70
2021/01/25 00:20:06;;;;;;;12.20;7.15;;;;;;;5.29;59.87;99782.22;4944530;28;115206;-69
2021/01/25 00:22:32;;;;;;;13.13;7.28;;;;;;;5.29;60.04;99779.59;4943954;28;114966;-69
2021/01/25 00:24:59;;;;;;;13.70;7.63;;;;;;;5.28;60.00;99780.53;4928985;28;122913;-69
2021/01/25 00:27:26;;;;;;;11.75;7.15;;;;;;;5.28;59.93;99785.78;4941540;28;123692;-69
2021/01/25 00:29:52;;;;;;;12.52;7.55;;;;;;;5.26;60.17;99770.94;4944457;28;114759;-69
2021/01/25 00:32:19;;;;;;;13.73;8.52;;;;;;;5.26;60.00;99777.97;4925750;28;113521;-69
2021/01/25 00:34:46;;;;;;;12.45;7.43;;;;;;;5.25;59.93;99777.13;4942910;28;124628;-69
2021/01/25 00:37:12;;;;;;;14.13;8.27;;;;;;;5.23;60.12;99773.66;4945797;28;124792;-69
2021/01/25 00:39:39;;;;;;;14.30;8.73;;;;;;;5.22;60.29;99779.00;4946263;28;114736;-69
2021/01/25 00:42:05;;;;;;;16.65;8.75;;;;;;;5.21;59.88;99778.13;4944075;28;114094;-69
2021/01/25 00:44:32;;;;;;;15.80;8.63;;;;;;;5.20;59.96;99779.06;4925610;28;122917;-69
2021/01/25 00:46:59;;;;;;;13.38;9.18;;;;;;;5.21;60.34;99782.53;4942819;28;123680;-69
2021/01/25 00:49:25;;;;;;;18.33;9.18;;;;;;;5.19;60.29;99781.75;4946467;28;114074;-69
2021/01/25 00:51:52;;;;;;;14.45;10.23;;;;;;;5.19;60.38;99782.59;4941293;28;115012;-71
2021/01/25 00:54:19;;;;;;;15.13;9.63;;;;;;;5.20;60.21;99776.44;4933740;28;123271;-69
2021/01/25 00:56:49;;;;;;;15.82;10.52;;;;;;;5.18;60.46;99775.66;4944169;28;124741;-69
2021/01/25 00:59:16;;;;;;;16.38;10.52;;;;;;;5.19;60.34;99779.97;4931456;28;113712;-69
2021/01/25 01:01:43;;;;;;;18.10;11.75;;;;;;;5.20;60.30;99779.06;4926015;28;113541;-69
2021/01/25 01:04:09;;;;;;;16.25;10.40;;;;;;;5.20;60.58;99783.47;4938998;28;124134;-71
2021/01/25 01:06:36;;;;;;;15.93;10.23;;;;;;;5.19;60.38;99787.84;4938084;28;123751;-69
2021/01/25 01:09:02;;;;;;;16.15;10.57;;;;;;;5.21;60.55;99783.38;4920532;28;114317;-69
2021/01/25 01:11:30;;;;;;;16.52;10.40;;;;;;;5.21;60.30;99791.25;4942252;28;114803;-69
2021/01/25 01:13:56;;;;;;;16.20;9.98;;;;;;;5.20;60.30;99788.72;4940939;28;123973;-69
2021/01/25 01:16:23;;;;;;;18.98;11.20;;;;;;;5.19;60.54;99787.84;4923594;28;122679;-69
2021/01/25 01:18:50;;;;;;;17.45;11.18;;;;;;;5.18;60.60;99796.66;4934058;28;113516;-70
2021/01/25 01:21:16;;;;;;;20.10;11.70;;;;;;;5.17;60.59;99797.53;4933254;28;113702;-70
2021/01/25 01:23:43;;;;;;;15.93;10.70;;;;;;;5.17;60.74;99792.28;4933953;28;123624;-70
2021/01/25 01:26:09;;;;;;;16.70;11.13;;;;;;;5.17;60.51;99800.16;4944574;28;124018;-70
2021/01/25 01:28:36;;;;;;;20.20;11.93;;;;;;;5.16;60.72;99793.22;4945599;28;113662;-70
2021/01/25 01:31:02;;;;;;;19.05;11.18;;;;;;;5.16;60.43;99803.72;4944119;28;114455;-70
2021/01/25 01:33:29;;;;;;;20.75;12.60;;;;;;;5.18;60.57;99795.78;4931370;28;123464;-70
2021/01/25 01:35:55;;;;;;;20.90;12.52;;;;;;;5.17;60.84;99805.41;4948342;28;123872;-70
2021/01/25 01:38:22;;;;;;;19.65;12.40;;;;;;;5.18;60.76;99809.78;4925538;28;113339;-70
2021/01/25 01:40:49;;;;;;;20.40;13.40;;;;;;;5.18;60.73;99807.16;4931652;28;113125;-70
2021/01/25 01:43:16;;;;;;;21.13;13.40;;;;;;;5.18;60.71;99806.25;4944012;28;124079;-70
2021/01/25 01:45:42;;;;;;;23.52;13.60;;;;;;;5.19;60.63;99814.09;4943490;28;124711;-70
2021/01/25 01:48:09;;;;;;;21.00;13.43;;;;;;;5.19;60.59;99808.84;4942838;28;114853;-70
2021/01/25 01:50:36;;;;;;;22.20;13.38;;;;;;;5.20;60.70;99814.97;4947784;28;114372;-70
2021/01/25 01:53:02;;;;;;;21.58;13.52;;;;;;;5.19;60.65;99814.09;4921137;28;122132;-69
2021/01/25 01:55:29;;;;;;;21.85;12.98;;;;;;;5.21;60.72;99807.00;4939385;28;123910;-70
2021/01/25 01:57:56;;;;;;;22.05;13.93;;;;;;;5.21;60.45;99812.25;4942309;28;115211;-70
2021/01/25 02:00:23;;;;;;;22.10;13.48;;;;;;;5.21;60.75;99812.25;4931065;28;114556;-70
2021/01/25 02:02:49;;;;;;;24.02;13.15;;;;;;;5.20;60.86;99815.81;4929040;28;123459;-70
2021/01/25 02:05:17;;;;;;;20.30;13.13;;;;;;;5.23;60.63;99809.56;4940811;28;124082;-70
2021/01/25 02:07:46;;;;;;;22.42;12.93;;;;;;;5.24;60.69;99827.88;4940261;28;114120;-70
2021/01/25 02:10:16;;;;;;;20.55;13.02;;;;;;;5.24;60.66;99822.66;4945555;28;114339;-70
2021/01/25 02:12:43;;;;;;;22.17;13.68;;;;;;;5.24;60.85;99816.53;4941482;28;123855;-70
2021/01/25 02:15:13;;;;;;;21.83;13.38;;;;;;;5.22;60.89;99819.22;4931208;28;125312;-70
2021/01/25 02:17:40;;;;;;;19.38;13.85;;;;;;;5.23;60.64;99823.53;4941880;28;114412;-70
2021/01/25 02:20:17;;;;;;;19.05;13.40;;;;;;;5.20;60.76;99823.69;4931053;28;113057;-70
2021/01/25 02:23:13;;;;;;;18.52;12.57;;;;;;;5.17;60.66;99826.41;4939958;28;123598;-70
2021/01/25 02:26:05;;;;;;;18.05;12.48;;;;;;;5.16;60.71;99832.59;4938898;28;125915;-70
2021/01/25 02:28:32;;;;;;;23.48;12.68;;;;;;;5.16;60.89;99829.97;4923893;28;113617;-70
2021/01/25 02:31:00;;;;;;;21.40;13.63;;;;;;;5.16;60.89;99829.97;4943038;28;113920;-71
2021/01/25 02:33:30;;;;;;;22.35;13.30;;;;;;;5.16;60.87;99829.09;4927618;28;123748;-70
2021/01/25 02:35:59;;;;;;;22.48;13.68;;;;;;;5.13;61.06;99824.00;4947644;28;123930;-70
2021/01/25 02:38:26;;;;;;;20.63;13.38;;;;;;;5.10;61.05;99822.31;4942528;28;113851;-71
2021/01/25 02:40:54;;;;;;;18.20;13.45;;;;;;;5.08;60.95;99821.53;4930727;28;113703;-70
2021/01/25 02:43:21;;;;;;;20.83;13.20;;;;;;;5.07;61.12;99830.34;4942387;28;124671;-70
2021/01/25 02:45:49;;;;;;;20.40;13.27;;;;;;;5.06;61.12;99834.69;4944057;28;123738;-70
2021/01/25 02:48:16;;;;;;;25.25;15.05;;;;;;;5.06;61.07;99829.44;4942532;28;115580;-70
2021/01/25 02:51:02;;;;;;;26.15;14.13;;;;;;;5.04;61.18;99830.44;4931705;28;116400;-70
2021/01/25 02:53:28;;;;;;;22.25;13.25;;;;;;;5.03;60.94;99834.00;4941074;28;124540;-70
2021/01/25 02:55:56;;;;;;;25.02;14.55;;;;;;;5.03;61.37;99836.63;4941573;28;123839;-70
2021/01/25 02:58:23;;;;;;;22.42;14.70;;;;;;;5.03;61.46;99839.25;4941496;28;114312;-70
2021/01/25 03:00:51;;;;;;;22.13;13.35;;;;;;;5.04;61.31;99846.19;4941069;28;114149;-70
2021/01/25 03:03:17;;;;;;;25.05;14.93;;;;;;;5.04;61.22;99840.94;4916714;28;122884;-70
2021/01/25 03:05:45;;;;;;;23.33;14.27;;;;;;;5.04;61.39;99846.19;4917971;28;122750;-70
2021/01/25 03:08:12;;;;;;;22.45;14.40;;;;;;;5.03;61.32;99860.22;4943431;28;114446;-71
2021/01/25 03:10:39;;;;;;;23.42;15.23;;;;;;;5.02;61.44;99850.63;4942718;28;114702;-70
2021/01/25 03:13:06;;;;;;;28.13;16.85;;;;;;;4.98;61.50;99843.81;4940016;28;123825;-70
2021/01/25 03:15:35;;;;;;;24.33;14.98;;;;;;;4.96;61.57;99848.25;4932149;28;124266;-70
2021/01/25 03:18:05;;;;;;;24.80;15.73;;;;;;;4.95;61.39;99857.03;4925096;28;113549;-70
2021/01/25 03:20:31;;;;;;;33.83;16.48;;;;;;;4.93;61.61;99853.59;4940794;28;113785;-70
2021/01/25 03:22:58;;;;;;;24.52;14.65;;;;;;;4.91;61.59;99856.28;4929564;28;123160;-70
2021/01/25 03:25:24;;;;;;;25.60;14.73;;;;;;;4.92;61.66;99851.91;4940406;28;124016;-70
2021/01/25 03:27:51;;;;;;;26.60;16.15;;;;;;;4.91;61.77;99861.53;4939950;28;114798;-70
2021/01/25 03:30:18;;;;;;;27.55;18.40;;;;;;;4.89;61.78;99855.50;4937078;28;114246;-70
2021/01/25 03:32:44;;;;;;;27.48;16.45;;;;;;;4.86;61.54;99853.84;4931290;28;123816;-69
2021/01/25 03:35:12;;;;;;;24.60;15.50;;;;;;;4.85;61.87;99856.53;4938927;28;124159;-69
2021/01/25 03:37:39;;;;;;;28.05;15.30;;;;;;;4.84;61.85;99865.28;4941933;28;115085;-72
2021/01/25 03:40:07;;;;;;;23.10;14.73;;;;;;;4.84;62.04;99868.78;4940452;28;115108;-69
2021/01/25 03:42:35;;;;;;;23.90;15.57;;;;;;;4.86;61.76;99869.59;4942256;28;124088;-69
2021/01/25 03:45:03;;;;;;;23.75;14.77;;;;;;;4.87;62.07;99876.53;4930005;28;123605;-69
2021/01/25 03:47:30;;;;;;;23.48;14.70;;;;;;;4.88;61.86;99873.00;4932229;28;114760;-69
2021/01/25 03:49:57;;;;;;;22.98;14.43;;;;;;;4.90;61.81;99877.31;4923908;28;113145;-69
2021/01/25 03:52:24;;;;;;;26.52;14.88;;;;;;;4.91;62.01;99877.28;4925706;28;124506;-69
2021/01/25 03:54:52;;;;;;;24.13;14.55;;;;;;;4.91;61.96;99887.75;4926748;28;122782;-69
2021/01/25 03:57:18;;;;;;;25.75;14.45;;;;;;;4.92;61.77;99894.75;4938946;28;114099;-69
2021/01/25 03:59:45;;;;;;;22.20;14.35;;;;;;;4.93;62.01;99891.19;4938215;28;114646;-69
2021/01/25 04:02:13;;;;;;;22.08;14.77;;;;;;;4.93;61.89;99895.59;4918680;28;124775;-69
2021/01/25 04:04:40;;;;;;;26.45;15.32;;;;;;;4.92;61.78;99900.00;4928953;28;123699;-69
2021/01/25 04:07:08;;;;;;;26.20;14.77;;;;;;;4.90;62.11;99906.19;4930839;28;114899;-69
2021/01/25 04:09:34;;;;;;;26.50;14.95;;;;;;;4.87;61.93;99913.25;4930314;28;114054;-69
2021/01/25 04:12:01;;;;;;;24.05;13.43;;;;;;;4.85;62.09;99909.84;4943696;28;123919;-69
2021/01/25 04:14:27;;;;;;;23.35;13.07;;;;;;;4.86;62.29;99910.72;4922338;28;123717;-69
2021/01/25 04:16:54;;;;;;;26.63;14.45;;;;;;;4.88;62.56;99909.75;4938578;28;114327;-69
2021/01/25 04:19:21;;;;;;;23.80;14.40;;;;;;;4.91;62.28;99923.66;4940340;28;114030;-69
2021/01/25 04:21:47;;;;;;;22.48;13.93;;;;;;;4.93;62.13;99921.81;4940696;28;124050;-70
2021/01/25 04:24:14;;;;;;;21.30;12.60;;;;;;;4.94;62.15;99928.78;4939892;28;124706;-69
2021/01/25 04:26:41;;;;;;;25.45;14.32;;;;;;;4.97;62.17;99931.28;4940867;28;116135;-69
2021/01/25 04:29:12;;;;;;;24.00;14.90;;;;;;;4.98;62.39;99935.63;4939249;28;114870;-69
2021/01/25 04:31:40;;;;;;;21.15;12.80;;;;;;;4.98;62.11;99931.25;4941348;28;124025;-69
2021/01/25 04:34:07;;;;;;;25.50;14.40;;;;;;;5.01;62.23;99935.50;4942303;28;124177;-69
2021/01/25 04:36:34;;;;;;;25.52;15.23;;;;;;;5.02;61.94;99938.06;4943054;28;114584;-69
2021/01/25 04:39:00;;;;;;;23.20;13.73;;;;;;;5.03;62.44;99936.34;4933108;28;114237;-69
2021/01/25 04:41:28;;;;;;;25.77;13.65;;;;;;;5.07;62.00;99940.56;4944443;28;124025;-69
2021/01/25 04:43:57;;;;;;;24.85;14.52;;;;;;;5.09;62.17;99938.72;4945145;28;124255;-69
2021/01/25 04:46:24;;;;;;;22.52;12.88;;;;;;;5.11;62.16;99943.91;4940988;28;114790;-69
2021/01/25 04:48:51;;;;;;;24.25;14.27;;;;;;;5.11;62.04;99942.16;4930103;28;113445;-69
2021/01/25 04:51:18;;;;;;;22.88;13.70;;;;;;;5.10;61.99;99950.91;4931196;28;124216;-69
2021/01/25 04:53:44;;;;;;;21.27;13.50;;;;;;;5.10;62.12;99940.41;4944008;28;125441;-69
2021/01/25 04:56:12;;;;;;;27.83;13.90;;;;;;;5.10;61.80;99950.91;4932581;28;112400;-69
2021/01/25 04:58:40;;;;;;;22.73;13.43;;;;;;;5.11;62.06;99947.41;4945824;28;114050;-69
2021/01/25 05:01:06;;;;;;;24.95;13.98;;;;;;;5.15;62.00;99950.75;4941445;28;123797;-69
2021/01/25 05:03:33;;;;;;;19.45;12.60;;;;;;;5.18;61.85;99951.50;4931998;28;123162;-69
2021/01/25 05:06:00;;;;;;;23.08;12.82;;;;;;;5.19;62.00;99961.06;4943176;28;114102;-69
2021/01/25 05:08:26;;;;;;;22.10;13.27;;;;;;;5.19;61.80;99963.69;4934279;28;113310;-69
2021/01/25 05:10:53;;;;;;;23.00;13.50;;;;;;;5.19;61.98;99971.56;4941928;28;124844;-69
2021/01/25 05:13:22;;;;;;;21.17;13.23;;;;;;;5.19;61.83;99968.94;4942569;28;124111;-69
2021/01/25 05:15:51;;;;;;;19.42;12.30;;;;;;;5.19;61.99;99966.31;4942759;28;115305;-69
2021/01/25 05:18:23;;;;;;;20.42;12.38;;;;;;;5.19;62.00;99966.31;4940481;28;114939;-69
2021/01/25 05:20:55;;;;;;;21.65;12.30;;;;;;;5.19;61.71;99976.81;4941554;28;124361;-69
2021/01/25 05:23:23;;;;;;;24.23;13.18;;;;;;;5.19;61.97;99982.06;4932900;28;123992;-69
2021/01/25 05:25:50;;;;;;;23.38;12.73;;;;;;;5.19;61.67;99984.69;4916626;28;113345;-69
2021/01/25 05:28:20;;;;;;;23.27;12.35;;;;;;;5.21;61.94;99990.75;4901323;28;113389;-69
2021/01/25 05:30:47;;;;;;;20.40;12.13;;;;;;;5.23;61.74;99991.53;4983432;23;124881;-78
2021/01/25 05:33:24;;;;;;;20.70;12.15;;;;;;;5.24;61.79;99990.66;4952369;28;121948;-79
2021/01/25 05:35:54;;;;;;;19.38;12.32;;;;;;;5.24;61.45;100005.56;4965089;28;114727;-78
2021/01/25 05:38:21;;;;;;;22.00;13.05;;;;;;;5.21;61.41;100001.25;4946733;28;112946;-78
2021/01/25 05:40:55;;;;;;;20.23;12.57;;;;;;;5.18;61.66;99996.13;4966643;28;124554;-78
2021/01/25 05:43:33;;;;;;;20.17;11.88;;;;;;;5.17;61.49;100004.91;4944655;28;124361;-78
2021/01/25 05:46:06;;;;;;;23.77;13.98;;;;;;;5.15;61.60;100011.97;4973710;28;112944;-77
2021/01/25 05:48:33;;;;;;;22.70;12.38;;;;;;;5.12;61.40;100012.06;4966666;28;113821;-78
2021/01/25 05:51:17;;;;;;;23.35;13.90;;;;;;;5.10;61.58;100013.06;4953953;28;122984;-78
2021/01/25 05:53:48;;;;;;;23.50;14.77;;;;;;;5.08;61.84;100015.72;4937810;28;123806;-78
2021/01/25 05:56:17;;;;;;;24.67;14.05;;;;;;;5.05;61.61;100021.97;4937951;28;113510;-78
2021/01/25 05:58:44;;;;;;;21.95;14.52;;;;;;;5.05;61.94;100021.09;4968967;28;113201;-78
2021/01/25 06:01:10;;;;;;;26.13;16.38;;;;;;;5.04;61.74;100029.88;4936074;28;123486;-78
2021/01/25 06:03:39;;;;;;;27.52;16.08;;;;;;;5.03;61.81;100029.03;4946433;28;122293;-78
2021/01/25 06:06:12;;;;;;;25.65;15.68;;;;;;;5.02;61.82;100032.56;4954916;28;114818;-78
2021/01/25 06:08:50;;;;;;;25.63;16.52;;;;;;;5.02;61.75;100034.31;4965940;28;115302;-78
2021/01/25 06:11:28;;;;;;;27.50;16.83;;;;;;;5.03;61.66;100038.69;4936152;28;123223;-78
2021/01/25 06:14:02;;;;;;;28.63;17.23;;;;;;;5.01;61.74;100040.47;4960262;28;124314;-78
2021/01/25 06:16:33;;;;;;;27.83;16.90;;;;;;;5.00;61.79;100044.03;4969869;28;114752;-78
2021/01/25 06:19:02;;;;;;;30.23;17.33;;;;;;;5.01;61.93;100050.97;4952301;28;113981;-78
2021/01/25 06:21:33;;;;;;;27.42;16.35;;;;;;;5.03;61.88;100060.53;4968567;28;122799;-77
2021/01/25 06:24:02;;;;;;;30.70;17.90;;;;;;;5.04;61.92;100050.88;4971792;28;123462;-78
2021/01/25 06:26:33;;;;;;;27.73;18.10;;;;;;;5.07;61.53;100056.03;4937999;28;114257;-78
2021/01/25 06:29:02;;;;;;;29.00;17.23;;;;;;;5.08;61.85;100062.97;4949530;28;112246;-79
2021/01/25 06:31:34;;;;;;;26.60;17.17;;;;;;;5.07;61.76;100059.50;4968815;28;122935;-78
2021/01/25 06:34:03;;;;;;;27.00;17.55;;;;;;;5.09;61.51;100067.31;4952967;28;122850;-78
2021/01/25 06:36:33;;;;;;;24.52;16.80;;;;;;;5.10;61.85;100066.41;4955920;28;112841;-79
2021/01/25 06:39:04;;;;;;;27.42;17.17;;;;;;;5.15;61.62;100072.34;4967832;28;113480;-78
2021/01/25 06:41:42;;;;;;;27.38;17.17;;;;;;;5.16;61.57;100081.94;4961251;28;124487;-78
2021/01/25 06:44:11;;;;;;;29.40;17.50;;;;;;;5.19;61.55;100087.06;4957200;28;123966;-78
2021/01/25 06:46:39;;;;;;;26.38;16.42;;;;;;;5.19;61.56;100092.31;4967292;28;114183;-78
2021/01/25 06:49:09;;;;;;;26.52;16.67;;;;;;;5.19;61.58;100094.94;4941130;28;113608;-78
2021/01/25 06:51:43;;;;;;;30.33;16.85;;;;;;;5.21;61.42;100097.53;4963286;28;123911;-78
2021/01/25 06:54:12;;;;;;;31.50;17.73;;;;;;;5.22;61.26;100105.34;4956698;28;124157;-78
2021/01/25 06:56:49;;;;;;;25.45;16.90;;;;;;;5.20;61.19;100115.06;4943025;28;114166;-78
2021/01/25 06:59:19;;;;;;;24.73;15.98;;;;;;;5.18;61.04;100111.63;4939998;28;114108;-78
2021/01/25 07:01:52;;;;;;;27.00;16.95;;;;;;;5.19;61.50;100123.81;4939293;28;123504;-78
2021/01/25 07:04:21;;;;;;;26.27;17.40;;;;;;;5.19;61.34;100129.06;4936978;28;123415;-79
2021/01/25 07:06:53;;;;;;;27.30;17.77;;;;;;;5.21;61.56;100132.50;4967858;28;113998;-78
2021/01/25 07:09:31;;;;;;;26.20;16.90;;;;;;;5.22;61.43;100144.72;4935371;28;113088;-78
2021/01/25 07:12:00;;;;;;;26.70;17.38;;;;;;;5.22;61.36;100144.72;4950727;28;122043;-78
2021/01/25 07:14:29;;;;;;;27.70;17.52;;;;;;;5.22;61.31;100149.97;4940330;28;122239;-79
2021/01/25 07:16:56;;;;;;;28.10;18.50;;;;;;;5.21;61.21;100153.50;4966123;28;114431;-78
2021/01/25 07:19:25;;;;;;;29.92;18.02;;;;;;;5.20;61.09;100157.06;4969150;28;114293;-78
2021/01/25 07:21:53;;;;;;;29.77;18.98;;;;;;;5.16;61.11;100165.94;4934676;28;122302;-79
2021/01/25 07:24:27;;;;;;;26.20;17.95;;;;;;;5.12;61.00;100169.56;4944928;28;124799;-79
2021/01/25 07:26:59;;;;;;;30.63;18.33;;;;;;;5.09;61.11;100169.69;4942800;28;113530;-78
2021/01/25 07:29:26;;;;;;;30.80;20.88;;;;;;;5.08;60.91;100178.44;4951452;28;114712;-78
2021/01/25 07:31:54;;;;;;;30.85;19.55;;;;;;;5.03;61.01;100188.25;4952964;28;123355;-79
2021/01/25 07:34:23;;;;;;;28.20;18.17;;;;;;;5.04;61.15;100195.22;4964772;28;124325;-78
2021/01/25 07:36:50;;;;;;;30.63;19.80;;;;;;;5.03;61.14;100196.13;4957462;28;114396;-79
2021/01/25 07:39:19;;;;;;;31.33;20.55;;;;;;;5.02;61.00;100205.75;4964176;28;114276;-78
2021/01/25 07:41:46;;;;;;;32.90;20.45;;;;;;;5.02;61.26;100202.28;4948990;28;123494;-78
2021/01/25 07:44:14;;;;;;;31.08;20.60;;;;;;;5.03;61.19;100211.88;4931121;28;122132;-78
2021/01/25 07:46:45;;;;;;;32.22;21.48;;;;;;;5.04;61.07;100218.84;4947940;28;114592;-79
2021/01/25 07:49:13;;;;;;;33.10;20.08;;;;;;;5.05;61.08;100215.31;4943571;28;114127;-78
2021/01/25 07:51:40;;;;;;;29.80;18.77;;;;;;;5.06;61.16;100224.88;4963661;28;123769;-78
2021/01/25 07:54:13;;;;;;;27.98;18.38;;;;;;;5.07;61.27;100229.25;4922254;28;123198;-79
2021/01/25 07:56:40;;;;;;;27.33;18.20;;;;;;;5.08;61.01;100236.19;4963004;28;113729;-78
2021/01/25 07:59:09;;;;;;;25.48;17.77;;;;;;;5.08;60.93;100236.19;4936067;28;113213;-79
2021/01/25 08:01:50;;;;;;;28.88;18.60;;;;;;;5.06;60.75;100240.63;4953019;28;123933;-80
2021/01/25 08:04:22;;;;;;;28.45;18.50;;;;;;;5.05;60.74;100246.81;4939556;28;123818;-79
2021/01/25 08:06:52;;;;;;;30.00;18.60;;;;;;;5.02;60.89;100257.41;4950710;28;113237;-79
2021/01/25 08:09:21;;;;;;;28.63;18.42;;;;;;;5.00;61.10;100253.97;4953495;28;113513;-79
2021/01/25 08:11:48;;;;;;;29.40;19.08;;;;;;;4.98;60.69;100261.03;4944208;28;124437;-79
2021/01/25 08:14:41;;;;;;;29.85;19.52;;;;;;;4.95;60.74;100266.34;4942839;28;123389;-79
2021/01/25 08:17:14;;;;;;;28.33;18.70;;;;;;;4.92;60.69;100274.34;4967129;28;113363;-79
2021/01/25 08:19:52;;;;;;;29.77;18.35;;;;;;;4.90;60.93;100278.75;4957334;28;113572;-80
2021/01/25 08:22:33;;;;;;;28.33;18.40;;;;;;;4.84;60.71;100285.94;4957902;28;124728;-78
2021/01/25 08:25:34;;;;;;;31.98;19.20;;;;;;;4.79;60.67;100293.06;4940581;28;122764;-80
2021/01/25 08:29:21;;;;;;;31.75;19.17;;;;;;;4.71;60.77;100294.19;4970183;28;114515;-80
2021/01/25 08:33:28;;;;;;;31.48;18.67;;;;;;;4.64;60.95;100293.53;4970094;28;114642;-80
2021/01/25 08:36:38;;;;;;;27.23;18.75;;;;;;;4.58;60.81;100304.22;4967538;28;124133;-80
2021/01/25 08:39:13;;;;;;;32.80;20.20;;;;;;;4.57;60.87;100297.22;4959005;28;123690;-79
2021/01/25 08:41:54;;;;;;;34.67;20.63;;;;;;;4.56;61.17;100311.22;4964596;28;115536;-79
2021/01/25 08:44:23;;;;;;;30.38;20.35;;;;;;;4.55;61.09;100312.16;4958472;28;114558;-79
2021/01/25 08:46:52;;;;;;;34.38;21.30;;;;;;;4.55;61.14;100320.03;4972239;28;124644;-79
2021/01/25 08:49:33;;;;;;;33.47;21.48;;;;;;;4.53;61.16;100321.84;4958023;28;123271;-79
2021/01/25 08:52:08;;;;;;;32.55;21.25;;;;;;;4.52;61.12;100320.97;4955792;28;113779;-79
2021/01/25 08:54:39;;;;;;;37.55;22.48;;;;;;;4.54;61.40;100326.16;4952659;28;112895;-79
2021/01/25 08:57:19;;;;;;;38.00;22.88;;;;;;;4.56;61.38;100324.34;4946692;28;124892;-79
2021/01/25 08:59:47;;;;;;;35.58;22.55;;;;;;;4.59;61.36;100332.13;4939171;28;122804;-79
2021/01/25 09:02:17;;;;;;;36.42;22.83;;;;;;;4.61;61.12;100338.19;4955135;28;114203;-79
2021/01/25 09:04:45;;;;;;;37.53;23.30;;;;;;;4.60;61.03;100339.97;4972029;28;114735;-79
2021/01/25 09:07:14;;;;;;;35.75;23.00;;;;;;;4.59;61.09;100338.22;4940942;28;123727;-79
2021/01/25 09:09:42;;;;;;;36.22;23.55;;;;;;;4.61;61.42;100351.31;4957202;28;124192;-79
2021/01/25 09:12:10;;;;;;;35.55;23.25;;;;;;;4.60;61.33;100354.84;4966614;28;114293;-79
2021/01/25 09:14:37;;;;;;;37.00;23.88;;;;;;;4.60;61.28;100365.34;4975629;28;114039;-79
2021/01/25 09:17:04;;;;;;;39.80;24.65;;;;;;;4.58;61.28;100356.66;4975052;28;124099;-79
2021/01/25 09:19:31;;;;;;;33.70;22.42;;;;;;;4.58;61.20;100367.16;4974710;28;123976;-79
2021/01/25 09:21:58;;;;;;;38.22;24.95;;;;;;;4.60;61.28;100375.84;4949230;28;113384;-79
2021/01/25 09:24:25;;;;;;;40.92;24.95;;;;;;;4.61;61.17;100378.38;4966681;28;113672;-79
2021/01/25 09:26:51;;;;;;;39.47;25.65;;;;;;;4.64;61.24;100382.72;4965685;28;123766;-79
2021/01/25 09:29:18;;;;;;;40.85;25.38;;;;;;;4.67;61.51;100387.84;4970919;28;123470;-79
2021/01/25 09:31:44;;;;;;;42.75;25.60;;;;;;;4.69;61.28;100388.69;4941261;28;114687;-79
2021/01/25 09:34:11;;;;;;;38.30;24.90;;;;;;;4.71;61.21;100393.88;4954158;28;113923;-78
2021/01/25 09:36:38;;;;;;;40.10;25.67;;;;;;;4.73;61.29;100403.44;4975899;28;122993;-78
2021/01/25 09:39:08;;;;;;;41.53;26.40;;;;;;;4.75;61.17;100396.38;4958043;28;123591;-79
2021/01/25 09:41:35;;;;;;;40.28;25.55;;;;;;;4.78;61.19;100401.53;4957701;28;112806;-79
2021/01/25 09:44:03;;;;;;;38.45;25.08;;;;;;;4.81;61.34;100398.81;4957178;28;112999;-79
2021/01/25 09:46:30;;;;;;;37.60;24.92;;;;;;;4.85;61.21;100402.22;4946641;28;123947;-79
2021/01/25 09:48:56;;;;;;;39.20;24.75;;;;;;;4.90;61.29;100404.69;4975949;28;123827;-79
2021/01/25 09:51:23;;;;;;;34.47;23.75;;;;;;;4.96;61.42;100404.53;4975590;28;114719;-78
2021/01/25 09:53:50;;;;;;;35.13;22.95;;;;;;;5.02;61.48;100414.84;4977146;28;114482;-79
2021/01/25 09:56:16;;;;;;;34.72;22.90;;;;;;;5.05;61.08;100409.53;4971674;28;123302;-79
2021/01/25 09:58:43;;;;;;;35.05;22.50;;;;;;;5.08;60.80;100419.91;4952208;28;123696;-79
2021/01/25 10:01:10;;;;;;;32.08;21.33;;;;;;;5.11;61.56;100425.09;4957894;28;114363;-79
2021/01/25 10:03:37;;;;;;;33.17;21.88;;;;;;;5.15;61.08;100424.09;4957232;28;114129;-79
2021/01/25 10:06:05;;;;;;;36.35;21.63;;;;;;;5.22;61.20;100438.75;4940392;28;124185;-79
2021/01/25 10:08:32;;;;;;;37.88;21.33;;;;;;;5.26;61.34;100440.38;4956555;28;126096;-79
2021/01/25 10:10:59;;;;;;;33.22;21.20;;;;;;;5.32;61.25;100443.75;4959394;28;114759;-79
2021/01/25 10:13:26;;;;;;;30.05;20.25;;;;;;;5.37;61.03;100452.31;4939046;28;114067;-80
2021/01/25 10:15:53;;;;;;;33.83;20.67;;;;;;;5.42;60.95;100455.69;4938224;28;123828;-80
2021/01/25 10:18:21;;;;;;;31.85;18.13;;;;;;;5.47;61.22;100454.63;4940102;28;124097;-80
2021/01/25 10:20:47;;;;;;;27.08;17.58;;;;;;;5.53;60.83;100464.09;4957404;28;114698;-80
2021/01/25 10:23:15;;;;;;;29.92;18.67;;;;;;;5.59;61.07;100473.56;4957659;28;114548;-80
2021/01/25 10:25:42;;;;;;;28.23;16.02;;;;;;;5.64;60.76;100480.38;4957427;28;123531;-80
2021/01/25 10:28:09;;;;;;;28.38;16.50;;;;;;;5.70;60.91;100475.88;4975256;28;124210;-80
2021/01/25 10:30:37;;;;;;;28.27;17.33;;;;;;;5.77;60.93;100477.41;4942762;28;112629;-80
2021/01/25 10:33:04;;;;;;;28.02;17.33;;;;;;;5.85;60.78;100485.88;4967501;28;112837;-80
2021/01/25 10:35:31;;;;;;;25.92;16.27;;;;;;;5.92;60.91;100482.16;4957810;28;123811;-80
2021/01/25 10:37:59;;;;;;;24.75;16.35;;;;;;;5.96;60.64;100483.81;4941003;28;122528;-80
2021/01/25 10:40:26;;;;;;;23.48;15.77;;;;;;;6.02;60.38;100494.13;4957521;28;114254;-80
2021/01/25 10:42:55;;;;;;;22.42;14.43;;;;;;;6.09;60.54;100499.22;4974349;28;113575;-79
2021/01/25 10:45:22;;;;;;;20.02;14.70;;;;;;;6.17;60.48;100502.44;4956424;28;123556;-79
2021/01/25 10:47:52;;;;;;;23.60;14.82;;;;;;;6.23;60.50;100507.50;4957263;28;121922;-79
2021/01/25 10:50:21;;;;;;;25.08;14.75;;;;;;;6.30;60.18;100510.81;4957906;28;113890;-80
2021/01/25 10:52:49;;;;;;;22.55;13.82;;;;;;;6.35;60.00;100517.63;4968351;28;113141;-79
2021/01/25 10:55:16;;;;;;;22.17;14.43;;;;;;;6.42;60.21;100527.03;4986715;28;123898;-80
2021/01/25 10:57:44;;;;;;;20.67;13.40;;;;;;;6.48;59.93;100523.34;4970496;28;124512;-80
2021/01/25 11:00:16;;;;;;;17.58;11.13;;;;;;;6.54;59.55;100532.81;4958588;28;112927;-80
2021/01/25 11:02:44;;;;;;;22.45;13.38;;;;;;;6.60;59.63;100537.84;4973674;28;114070;-80
2021/01/25 11:05:17;;;;;;;18.13;12.70;;;;;;;6.65;59.59;100541.22;4975662;28;123798;-80
2021/01/25 11:07:44;;;;;;;17.83;11.65;;;;;;;6.74;59.57;100535.63;4974636;28;122513;-80
2021/01/25 11:10:16;;;;;;;19.42;12.63;;;;;;;6.77;59.33;100535.50;4958721;28;115341;-80
2021/01/25 11:12:43;;;;;;;19.20;11.05;;;;;;;6.82;59.22;100536.22;4971501;28;114843;-79
2021/01/25 11:15:10;;;;;;;19.83;11.90;;;;;;;6.84;58.79;100536.16;4957364;28;123279;-80
2021/01/25 11:17:37;;;;;;;20.42;12.15;;;;;;;6.89;58.92;100538.63;4957509;28;123117;-79
2021/01/25 11:20:06;;;;;;;19.17;11.55;;;;;;;6.92;58.78;100536.75;4962119;28;113735;-79
2021/01/25 11:22:33;;;;;;;17.00;11.57;;;;;;;6.96;59.06;100534.88;4961174;28;113934;-80
2021/01/25 11:25:00;;;;;;;19.23;12.23;;;;;;;6.99;58.81;100534.78;4958383;28;124496;-79